Terminal Aerodrome Forecast
Issued by NWS Melbourne, FL

Home | Current Version | Previous Version | Text Only | Print | Product List | Glossary On
Versions: 1 2 3 4 5 6 7 8 9 10 11 12 13 14 15 16
000
FTUS42 KMLB 282329
TAFMLB
TAF
KMLB 282329Z 2900/2924 19005KT P6SM BKN016 BKN026
     FM290200 VRB01KT P6SM SCT070 BKN250
     FM291400 10005KT P6SM VCSH SCT030 SCT100 BKN250
     FM291700 08008KT P6SM VCTS SCT035CB BKN250
      TEMPO 2919/2922 TS BKN035CB BKN060=

USA.gov is the U.S. government's official web portal to all federal, state and local government web resources and services.